sensor_id;sensor_type;location;lat;lon;timestamp;P1;durP1;ratioP1;P2;durP2;ratioP2
75413;SDS011;64758;52.122;5.404;2023-04-28T00:01:35;5.70;;;3.55;;
75413;SDS011;64758;52.122;5.404;2023-04-28T00:04:02;5.82;;;3.33;;
75413;SDS011;64758;52.122;5.404;2023-04-28T00:06:29;4.07;;;3.08;;
75413;SDS011;64758;52.122;5.404;2023-04-28T00:08:56;5.90;;;3.43;;
75413;SDS011;64758;52.122;5.404;2023-04-28T00:11:22;5.82;;;3.25;;
75413;SDS011;64758;52.122;5.404;2023-04-28T00:13:49;6.10;;;3.10;;
75413;SDS011;64758;52.122;5.404;2023-04-28T00:16:15;5.97;;;3.20;;
75413;SDS011;64758;52.122;5.404;2023-04-28T00:18:42;5.78;;;3.38;;
75413;SDS011;64758;52.122;5.404;2023-04-28T00:21:09;6.33;;;3.60;;
75413;SDS011;64758;52.122;5.404;2023-04-28T00:23:36;4.90;;;3.28;;
75413;SDS011;64758;52.122;5.404;2023-04-28T00:26:02;5.50;;;2.78;;
75413;SDS011;64758;52.122;5.404;2023-04-28T00:28:29;7.35;;;4.18;;
75413;SDS011;64758;52.122;5.404;2023-04-28T00:31:00;6.25;;;2.95;;
75413;SDS011;64758;52.122;5.404;2023-04-28T00:33:27;5.78;;;2.75;;
75413;SDS011;64758;52.122;5.404;2023-04-28T00:35:59;5.05;;;2.85;;
75413;SDS011;64758;52.122;5.404;2023-04-28T00:38:27;5.00;;;3.00;;
75413;SDS011;64758;52.122;5.404;2023-04-28T00:40:53;7.25;;;3.30;;
75413;SDS011;64758;52.122;5.404;2023-04-28T00:43:20;4.25;;;2.67;;
75413;SDS011;64758;52.122;5.404;2023-04-28T00:45:49;4.57;;;3.07;;
75413;SDS011;64758;52.122;5.404;2023-04-28T00:48:17;4.07;;;2.65;;
75413;SDS011;64758;52.122;5.404;2023-04-28T00:50:44;6.53;;;2.85;;
75413;SDS011;64758;52.122;5.404;2023-04-28T00:53:12;5.07;;;2.85;;
75413;SDS011;64758;52.122;5.404;2023-04-28T00:55:39;5.25;;;3.00;;
75413;SDS011;64758;52.122;5.404;2023-04-28T00:58:06;6.13;;;3.53;;
75413;SDS011;64758;52.122;5.404;2023-04-28T01:00:33;4.80;;;3.15;;
75413;SDS011;64758;52.122;5.404;2023-04-28T01:03:00;5.57;;;3.17;;
75413;SDS011;64758;52.122;5.404;2023-04-28T01:05:27;4.28;;;2.85;;
75413;SDS011;64758;52.122;5.404;2023-04-28T01:07:55;3.88;;;3.05;;
75413;SDS011;64758;52.122;5.404;2023-04-28T01:10:21;4.23;;;2.70;;
75413;SDS011;64758;52.122;5.404;2023-04-28T01:12:48;5.15;;;2.80;;
75413;SDS011;64758;52.122;5.404;2023-04-28T01:15:16;4.82;;;2.88;;
75413;SDS011;64758;52.122;5.404;2023-04-28T01:17:44;3.92;;;2.90;;
75413;SDS011;64758;52.122;5.404;2023-04-28T01:20:12;5.82;;;3.33;;
75413;SDS011;64758;52.122;5.404;2023-04-28T01:22:39;5.28;;;2.83;;
75413;SDS011;64758;52.122;5.404;2023-04-28T01:25:05;5.05;;;2.63;;
75413;SDS011;64758;52.122;5.404;2023-04-28T01:27:32;4.00;;;2.65;;
75413;SDS011;64758;52.122;5.404;2023-04-28T01:29:59;4.13;;;2.72;;
75413;SDS011;64758;52.122;5.404;2023-04-28T01:32:26;4.45;;;3.08;;
75413;SDS011;64758;52.122;5.404;2023-04-28T01:34:52;5.47;;;2.75;;
75413;SDS011;64758;52.122;5.404;2023-04-28T01:37:19;4.60;;;2.85;;
75413;SDS011;64758;52.122;5.404;2023-04-28T01:39:45;4.38;;;2.90;;
75413;SDS011;64758;52.122;5.404;2023-04-28T01:42:12;4.30;;;2.67;;
75413;SDS011;64758;52.122;5.404;2023-04-28T01:44:38;6.50;;;3.08;;
75413;SDS011;64758;52.122;5.404;2023-04-28T01:47:06;5.53;;;3.10;;
75413;SDS011;64758;52.122;5.404;2023-04-28T01:49:32;4.68;;;2.72;;
75413;SDS011;64758;52.122;5.404;2023-04-28T01:51:59;5.47;;;2.95;;
75413;SDS011;64758;52.122;5.404;2023-04-28T01:54:25;5.60;;;2.50;;
75413;SDS011;64758;52.122;5.404;2023-04-28T01:56:53;5.03;;;2.75;;
75413;SDS011;64758;52.122;5.404;2023-04-28T01:59:19;4.00;;;2.53;;
75413;SDS011;64758;52.122;5.404;2023-04-28T02:01:46;3.88;;;2.38;;
75413;SDS011;64758;52.122;5.404;2023-04-28T02:04:12;4.40;;;2.50;;
75413;SDS011;64758;52.122;5.404;2023-04-28T02:06:39;7.03;;;3.05;;
75413;SDS011;64758;52.122;5.404;2023-04-28T02:09:06;8.73;;;3.10;;
75413;SDS011;64758;52.122;5.404;2023-04-28T02:11:32;6.35;;;2.50;;
75413;SDS011;64758;52.122;5.404;2023-04-28T02:13:59;5.55;;;2.95;;
75413;SDS011;64758;52.122;5.404;2023-04-28T02:16:25;8.27;;;2.92;;
75413;SDS011;64758;52.122;5.404;2023-04-28T02:18:52;3.38;;;2.25;;
75413;SDS011;64758;52.122;5.404;2023-04-28T02:21:18;5.45;;;2.58;;
75413;SDS011;64758;52.122;5.404;2023-04-28T02:23:45;6.67;;;2.97;;
75413;SDS011;64758;52.122;5.404;2023-04-28T02:26:12;5.20;;;2.38;;
75413;SDS011;64758;52.122;5.404;2023-04-28T02:28:38;6.65;;;2.83;;
75413;SDS011;64758;52.122;5.404;2023-04-28T02:31:05;4.25;;;2.80;;
75413;SDS011;64758;52.122;5.404;2023-04-28T02:33:33;3.63;;;2.65;;
75413;SDS011;64758;52.122;5.404;2023-04-28T02:36:03;4.00;;;2.53;;
75413;SDS011;64758;52.122;5.404;2023-04-28T02:38:30;4.32;;;3.00;;
75413;SDS011;64758;52.122;5.404;2023-04-28T02:40:57;6.63;;;2.53;;
75413;SDS011;64758;52.122;5.404;2023-04-28T02:43:30;5.60;;;2.75;;
75413;SDS011;64758;52.122;5.404;2023-04-28T02:45:57;4.65;;;2.83;;
75413;SDS011;64758;52.122;5.404;2023-04-28T02:48:24;5.63;;;2.70;;
75413;SDS011;64758;52.122;5.404;2023-04-28T02:50:50;4.90;;;2.58;;
75413;SDS011;64758;52.122;5.404;2023-04-28T02:53:18;4.78;;;2.92;;
75413;SDS011;64758;52.122;5.404;2023-04-28T02:55:45;6.00;;;2.60;;
75413;SDS011;64758;52.122;5.404;2023-04-28T02:58:12;6.90;;;3.00;;
75413;SDS011;64758;52.122;5.404;2023-04-28T03:00:38;5.23;;;2.70;;
75413;SDS011;64758;52.122;5.404;2023-04-28T03:03:05;4.53;;;3.28;;
75413;SDS011;64758;52.122;5.404;2023-04-28T03:05:32;5.32;;;2.80;;
75413;SDS011;64758;52.122;5.404;2023-04-28T03:07:59;4.28;;;3.00;;
75413;SDS011;64758;52.122;5.404;2023-04-28T03:10:25;5.03;;;2.47;;
75413;SDS011;64758;52.122;5.404;2023-04-28T03:12:52;4.60;;;2.97;;
75413;SDS011;64758;52.122;5.404;2023-04-28T03:15:18;3.55;;;2.20;;
75413;SDS011;64758;52.122;5.404;2023-04-28T03:17:45;5.40;;;2.92;;
75413;SDS011;64758;52.122;5.404;2023-04-28T03:20:11;5.80;;;3.17;;
75413;SDS011;64758;52.122;5.404;2023-04-28T03:22:38;6.10;;;2.42;;
75413;SDS011;64758;52.122;5.404;2023-04-28T03:25:05;4.67;;;2.53;;
75413;SDS011;64758;52.122;5.404;2023-04-28T03:27:31;4.45;;;2.70;;
75413;SDS011;64758;52.122;5.404;2023-04-28T03:29:58;7.32;;;2.80;;
75413;SDS011;64758;52.122;5.404;2023-04-28T03:32:24;4.25;;;2.50;;
75413;SDS011;64758;52.122;5.404;2023-04-28T03:34:51;3.85;;;2.83;;
75413;SDS011;64758;52.122;5.404;2023-04-28T03:37:18;6.50;;;2.97;;
75413;SDS011;64758;52.122;5.404;2023-04-28T03:39:44;6.05;;;3.05;;
75413;SDS011;64758;52.122;5.404;2023-04-28T03:42:11;4.68;;;3.05;;
75413;SDS011;64758;52.122;5.404;2023-04-28T03:44:37;6.78;;;2.80;;
75413;SDS011;64758;52.122;5.404;2023-04-28T03:47:04;6.88;;;2.90;;
75413;SDS011;64758;52.122;5.404;2023-04-28T03:49:30;4.40;;;2.60;;
75413;SDS011;64758;52.122;5.404;2023-04-28T03:51:57;4.20;;;2.53;;
75413;SDS011;64758;52.122;5.404;2023-04-28T03:54:23;5.70;;;2.90;;
75413;SDS011;64758;52.122;5.404;2023-04-28T03:56:50;4.40;;;3.20;;
75413;SDS011;64758;52.122;5.404;2023-04-28T03:59:17;4.50;;;2.65;;
75413;SDS011;64758;52.122;5.404;2023-04-28T04:01:43;5.78;;;2.85;;
75413;SDS011;64758;52.122;5.404;2023-04-28T04:04:10;4.00;;;2.90;;
75413;SDS011;64758;52.122;5.404;2023-04-28T04:06:36;5.32;;;3.20;;
75413;SDS011;64758;52.122;5.404;2023-04-28T04:09:03;5.13;;;3.13;;
75413;SDS011;64758;52.122;5.404;2023-04-28T04:11:30;4.68;;;3.10;;
75413;SDS011;64758;52.122;5.404;2023-04-28T04:13:56;5.00;;;3.00;;
75413;SDS011;64758;52.122;5.404;2023-04-28T04:16:23;4.68;;;3.00;;
75413;SDS011;64758;52.122;5.404;2023-04-28T04:18:49;6.70;;;2.90;;
75413;SDS011;64758;52.122;5.404;2023-04-28T04:21:16;4.68;;;2.80;;
75413;SDS011;64758;52.122;5.404;2023-04-28T04:23:43;4.30;;;3.10;;
75413;SDS011;64758;52.122;5.404;2023-04-28T04:26:10;5.67;;;2.80;;
75413;SDS011;64758;52.122;5.404;2023-04-28T04:28:36;5.05;;;3.10;;
75413;SDS011;64758;52.122;5.404;2023-04-28T04:31:03;4.70;;;2.97;;
75413;SDS011;64758;52.122;5.404;2023-04-28T04:33:29;5.65;;;2.80;;
75413;SDS011;64758;52.122;5.404;2023-04-28T04:35:56;6.78;;;3.33;;
75413;SDS011;64758;52.122;5.404;2023-04-28T04:38:23;5.50;;;3.20;;
75413;SDS011;64758;52.122;5.404;2023-04-28T04:40:49;5.47;;;3.72;;
75413;SDS011;64758;52.122;5.404;2023-04-28T04:43:16;3.85;;;2.92;;
75413;SDS011;64758;52.122;5.404;2023-04-28T04:45:42;5.97;;;3.25;;
75413;SDS011;64758;52.122;5.404;2023-04-28T04:48:09;6.72;;;3.17;;
75413;SDS011;64758;52.122;5.404;2023-04-28T04:50:36;6.50;;;2.97;;
75413;SDS011;64758;52.122;5.404;2023-04-28T04:53:03;7.38;;;3.65;;
75413;SDS011;64758;52.122;5.404;2023-04-28T04:55:30;5.80;;;3.17;;
75413;SDS011;64758;52.122;5.404;2023-04-28T04:57:56;5.20;;;3.40;;
75413;SDS011;64758;52.122;5.404;2023-04-28T05:00:23;6.55;;;3.63;;
75413;SDS011;64758;52.122;5.404;2023-04-28T05:02:49;9.67;;;3.30;;
75413;SDS011;64758;52.122;5.404;2023-04-28T05:05:16;5.07;;;3.20;;
75413;SDS011;64758;52.122;5.404;2023-04-28T05:07:48;4.50;;;3.30;;
75413;SDS011;64758;52.122;5.404;2023-04-28T05:10:14;6.72;;;3.42;;
75413;SDS011;64758;52.122;5.404;2023-04-28T05:12:41;4.75;;;3.63;;
75413;SDS011;64758;52.122;5.404;2023-04-28T05:15:12;6.13;;;3.53;;
75413;SDS011;64758;52.122;5.404;2023-04-28T05:17:39;6.20;;;3.50;;
75413;SDS011;64758;52.122;5.404;2023-04-28T05:20:06;5.82;;;3.40;;
75413;SDS011;64758;52.122;5.404;2023-04-28T05:22:33;7.43;;;3.22;;
75413;SDS011;64758;52.122;5.404;2023-04-28T05:24:59;7.40;;;3.70;;
75413;SDS011;64758;52.122;5.404;2023-04-28T05:27:26;6.00;;;3.67;;
75413;SDS011;64758;52.122;5.404;2023-04-28T05:29:52;4.88;;;3.85;;
75413;SDS011;64758;52.122;5.404;2023-04-28T05:32:19;6.07;;;3.95;;
75413;SDS011;64758;52.122;5.404;2023-04-28T05:34:46;6.40;;;3.78;;
75413;SDS011;64758;52.122;5.404;2023-04-28T05:37:13;5.82;;;3.63;;
75413;SDS011;64758;52.122;5.404;2023-04-28T05:39:39;7.23;;;3.90;;
75413;SDS011;64758;52.122;5.404;2023-04-28T05:42:06;6.10;;;3.97;;
75413;SDS011;64758;52.122;5.404;2023-04-28T05:44:32;9.57;;;5.00;;
75413;SDS011;64758;52.122;5.404;2023-04-28T05:46:59;7.75;;;4.38;;
75413;SDS011;64758;52.122;5.404;2023-04-28T05:49:25;9.27;;;5.00;;
75413;SDS011;64758;52.122;5.404;2023-04-28T05:51:52;9.57;;;4.90;;
75413;SDS011;64758;52.122;5.404;2023-04-28T05:54:18;10.15;;;4.88;;
75413;SDS011;64758;52.122;5.404;2023-04-28T05:56:45;8.30;;;5.22;;
75413;SDS011;64758;52.122;5.404;2023-04-28T05:59:11;10.05;;;4.82;;
75413;SDS011;64758;52.122;5.404;2023-04-28T06:01:38;7.85;;;4.93;;
75413;SDS011;64758;52.122;5.404;2023-04-28T06:04:04;8.43;;;5.00;;
75413;SDS011;64758;52.122;5.404;2023-04-28T06:06:31;8.43;;;4.82;;
75413;SDS011;64758;52.122;5.404;2023-04-28T06:08:59;8.70;;;5.65;;
75413;SDS011;64758;52.122;5.404;2023-04-28T06:11:25;7.28;;;4.85;;
75413;SDS011;64758;52.122;5.404;2023-04-28T06:13:52;8.35;;;5.05;;
75413;SDS011;64758;52.122;5.404;2023-04-28T06:16:18;7.93;;;4.97;;
75413;SDS011;64758;52.122;5.404;2023-04-28T06:18:45;10.45;;;5.10;;
75413;SDS011;64758;52.122;5.404;2023-04-28T06:21:15;7.95;;;4.97;;
75413;SDS011;64758;52.122;5.404;2023-04-28T06:23:42;8.70;;;5.45;;
75413;SDS011;64758;52.122;5.404;2023-04-28T06:26:09;8.27;;;5.20;;
75413;SDS011;64758;52.122;5.404;2023-04-28T06:28:35;8.27;;;5.10;;
75413;SDS011;64758;52.122;5.404;2023-04-28T06:31:02;8.85;;;5.35;;
75413;SDS011;64758;52.122;5.404;2023-04-28T06:33:28;7.20;;;5.25;;
75413;SDS011;64758;52.122;5.404;2023-04-28T06:35:55;10.98;;;5.10;;
75413;SDS011;64758;52.122;5.404;2023-04-28T06:38:22;7.30;;;5.53;;
75413;SDS011;64758;52.122;5.404;2023-04-28T06:40:48;10.50;;;5.82;;
75413;SDS011;64758;52.122;5.404;2023-04-28T06:43:15;9.18;;;5.72;;
75413;SDS011;64758;52.122;5.404;2023-04-28T06:45:41;10.27;;;6.25;;
75413;SDS011;64758;52.122;5.404;2023-04-28T06:48:08;9.60;;;6.05;;
75413;SDS011;64758;52.122;5.404;2023-04-28T06:50:35;9.60;;;6.40;;
75413;SDS011;64758;52.122;5.404;2023-04-28T06:53:02;12.50;;;6.93;;
75413;SDS011;64758;52.122;5.404;2023-04-28T06:55:28;10.02;;;6.07;;
75413;SDS011;64758;52.122;5.404;2023-04-28T06:57:55;14.65;;;6.32;;
75413;SDS011;64758;52.122;5.404;2023-04-28T07:00:22;10.18;;;6.30;;
75413;SDS011;64758;52.122;5.404;2023-04-28T07:02:48;11.18;;;6.75;;
75413;SDS011;64758;52.122;5.404;2023-04-28T07:05:15;10.25;;;6.55;;
75413;SDS011;64758;52.122;5.404;2023-04-28T07:07:42;9.20;;;6.72;;
75413;SDS011;64758;52.122;5.404;2023-04-28T07:10:08;9.60;;;6.63;;
75413;SDS011;64758;52.122;5.404;2023-04-28T07:12:36;10.80;;;7.10;;
75413;SDS011;64758;52.122;5.404;2023-04-28T07:15:03;11.57;;;7.97;;
75413;SDS011;64758;52.122;5.404;2023-04-28T07:17:30;11.85;;;7.35;;
75413;SDS011;64758;52.122;5.404;2023-04-28T07:19:56;12.40;;;7.60;;
75413;SDS011;64758;52.122;5.404;2023-04-28T07:22:23;13.75;;;7.97;;
75413;SDS011;64758;52.122;5.404;2023-04-28T07:24:49;11.07;;;7.63;;
75413;SDS011;64758;52.122;5.404;2023-04-28T07:27:17;15.50;;;8.25;;
75413;SDS011;64758;52.122;5.404;2023-04-28T07:29:44;12.07;;;8.98;;
75413;SDS011;64758;52.122;5.404;2023-04-28T07:32:10;14.52;;;8.38;;
75413;SDS011;64758;52.122;5.404;2023-04-28T07:34:37;12.27;;;8.32;;
75413;SDS011;64758;52.122;5.404;2023-04-28T07:37:03;13.77;;;8.32;;
75413;SDS011;64758;52.122;5.404;2023-04-28T07:39:31;15.00;;;8.82;;
75413;SDS011;64758;52.122;5.404;2023-04-28T07:42:00;12.85;;;8.48;;
75413;SDS011;64758;52.122;5.404;2023-04-28T07:44:28;11.87;;;8.47;;
75413;SDS011;64758;52.122;5.404;2023-04-28T07:46:55;15.20;;;8.93;;
75413;SDS011;64758;52.122;5.404;2023-04-28T07:49:22;13.25;;;8.35;;
75413;SDS011;64758;52.122;5.404;2023-04-28T07:51:48;12.20;;;8.40;;
75413;SDS011;64758;52.122;5.404;2023-04-28T07:54:17;12.02;;;8.20;;
75413;SDS011;64758;52.122;5.404;2023-04-28T07:56:44;11.90;;;9.07;;
75413;SDS011;64758;52.122;5.404;2023-04-28T07:59:10;12.80;;;8.88;;
75413;SDS011;64758;52.122;5.404;2023-04-28T08:01:37;12.30;;;8.73;;
75413;SDS011;64758;52.122;5.404;2023-04-28T08:04:03;13.30;;;9.45;;
75413;SDS011;64758;52.122;5.404;2023-04-28T08:06:31;12.35;;;8.88;;
75413;SDS011;64758;52.122;5.404;2023-04-28T08:08:59;13.43;;;9.23;;
75413;SDS011;64758;52.122;5.404;2023-04-28T08:11:27;14.00;;;9.20;;
75413;SDS011;64758;52.122;5.404;2023-04-28T08:13:53;12.40;;;8.88;;
75413;SDS011;64758;52.122;5.404;2023-04-28T08:16:22;14.98;;;8.48;;
75413;SDS011;64758;52.122;5.404;2023-04-28T08:18:48;11.55;;;8.85;;
75413;SDS011;64758;52.122;5.404;2023-04-28T08:21:15;15.13;;;8.90;;
75413;SDS011;64758;52.122;5.404;2023-04-28T08:23:42;12.10;;;8.73;;
75413;SDS011;64758;52.122;5.404;2023-04-28T08:26:08;12.88;;;9.30;;
75413;SDS011;64758;52.122;5.404;2023-04-28T08:28:34;13.65;;;8.95;;
75413;SDS011;64758;52.122;5.404;2023-04-28T08:31:02;14.75;;;9.68;;
75413;SDS011;64758;52.122;5.404;2023-04-28T08:33:30;15.27;;;10.03;;
75413;SDS011;64758;52.122;5.404;2023-04-28T08:35:57;11.65;;;9.10;;
75413;SDS011;64758;52.122;5.404;2023-04-28T08:38:23;13.15;;;8.57;;
75413;SDS011;64758;52.122;5.404;2023-04-28T08:40:50;18.05;;;9.45;;
75413;SDS011;64758;52.122;5.404;2023-04-28T08:43:17;13.07;;;9.55;;
75413;SDS011;64758;52.122;5.404;2023-04-28T08:45:46;14.10;;;9.70;;
75413;SDS011;64758;52.122;5.404;2023-04-28T08:48:17;13.68;;;9.55;;
75413;SDS011;64758;52.122;5.404;2023-04-28T08:50:48;16.85;;;10.50;;
75413;SDS011;64758;52.122;5.404;2023-04-28T08:53:23;15.15;;;10.85;;
75413;SDS011;64758;52.122;5.404;2023-04-28T08:55:55;14.63;;;10.30;;
75413;SDS011;64758;52.122;5.404;2023-04-28T08:58:23;13.90;;;9.90;;
75413;SDS011;64758;52.122;5.404;2023-04-28T09:00:51;13.18;;;10.60;;
75413;SDS011;64758;52.122;5.404;2023-04-28T09:03:19;14.20;;;10.80;;
75413;SDS011;64758;52.122;5.404;2023-04-28T09:05:46;14.95;;;10.85;;
75413;SDS011;64758;52.122;5.404;2023-04-28T09:08:13;16.08;;;11.00;;
75413;SDS011;64758;52.122;5.404;2023-04-28T09:10:39;13.97;;;9.87;;
75413;SDS011;64758;52.122;5.404;2023-04-28T09:13:06;16.85;;;11.00;;
75413;SDS011;64758;52.122;5.404;2023-04-28T09:15:34;17.90;;;10.70;;
75413;SDS011;64758;52.122;5.404;2023-04-28T09:18:02;16.05;;;10.95;;
75413;SDS011;64758;52.122;5.404;2023-04-28T09:20:32;16.08;;;11.45;;
75413;SDS011;64758;52.122;5.404;2023-04-28T09:25:40;16.33;;;11.10;;
75413;SDS011;64758;52.122;5.404;2023-04-28T09:28:19;18.48;;;11.63;;
75413;SDS011;64758;52.122;5.404;2023-04-28T09:30:47;19.67;;;11.80;;
75413;SDS011;64758;52.122;5.404;2023-04-28T09:33:13;18.50;;;12.05;;
75413;SDS011;64758;52.122;5.404;2023-04-28T09:35:41;17.30;;;11.77;;
75413;SDS011;64758;52.122;5.404;2023-04-28T09:38:10;16.20;;;11.68;;
75413;SDS011;64758;52.122;5.404;2023-04-28T09:40:56;17.17;;;12.35;;
75413;SDS011;64758;52.122;5.404;2023-04-28T09:45:56;16.17;;;12.00;;
75413;SDS011;64758;52.122;5.404;2023-04-28T09:50:54;14.02;;;10.80;;
75413;SDS011;64758;52.122;5.404;2023-04-28T09:53:24;14.48;;;11.35;;
75413;SDS011;64758;52.122;5.404;2023-04-28T09:55:55;15.65;;;11.18;;
75413;SDS011;64758;52.122;5.404;2023-04-28T09:58:23;15.27;;;11.43;;
75413;SDS011;64758;52.122;5.404;2023-04-28T10:00:51;14.13;;;10.80;;
75413;SDS011;64758;52.122;5.404;2023-04-28T10:03:21;15.90;;;11.43;;
75413;SDS011;64758;52.122;5.404;2023-04-28T10:05:52;14.55;;;10.45;;
75413;SDS011;64758;52.122;5.404;2023-04-28T10:08:19;13.38;;;10.60;;
75413;SDS011;64758;52.122;5.404;2023-04-28T10:10:50;18.75;;;11.23;;
75413;SDS011;64758;52.122;5.404;2023-04-28T10:13:20;13.83;;;10.87;;
75413;SDS011;64758;52.122;5.404;2023-04-28T10:15:48;13.00;;;10.55;;
75413;SDS011;64758;52.122;5.404;2023-04-28T10:18:15;12.95;;;10.70;;
75413;SDS011;64758;52.122;5.404;2023-04-28T10:20:45;10.70;;;9.60;;
75413;SDS011;64758;52.122;5.404;2023-04-28T10:25:57;9.67;;;7.97;;
75413;SDS011;64758;52.122;5.404;2023-04-28T10:28:28;8.85;;;7.93;;
75413;SDS011;64758;52.122;5.404;2023-04-28T10:31:14;9.55;;;7.80;;
75413;SDS011;64758;52.122;5.404;2023-04-28T10:33:43;12.57;;;8.55;;
75413;SDS011;64758;52.122;5.404;2023-04-28T10:36:10;10.57;;;8.43;;
75413;SDS011;64758;52.122;5.404;2023-04-28T10:39:06;10.40;;;8.70;;
75413;SDS011;64758;52.122;5.404;2023-04-28T10:41:36;9.75;;;7.68;;
75413;SDS011;64758;52.122;5.404;2023-04-28T10:47:05;9.65;;;7.90;;
75413;SDS011;64758;52.122;5.404;2023-04-28T11:00:43;9.05;;;7.40;;
75413;SDS011;64758;52.122;5.404;2023-04-28T11:08:52;11.52;;;7.70;;
75413;SDS011;64758;52.122;5.404;2023-04-28T11:11:21;8.90;;;6.72;;
75413;SDS011;64758;52.122;5.404;2023-04-28T11:13:51;10.27;;;7.90;;
75413;SDS011;64758;52.122;5.404;2023-04-28T11:16:20;9.73;;;7.25;;
75413;SDS011;64758;52.122;5.404;2023-04-28T11:18:59;9.33;;;7.60;;
75413;SDS011;64758;52.122;5.404;2023-04-28T11:21:30;8.82;;;6.65;;
75413;SDS011;64758;52.122;5.404;2023-04-28T11:23:58;9.15;;;7.30;;
75413;SDS011;64758;52.122;5.404;2023-04-28T11:26:24;10.35;;;6.97;;
75413;SDS011;64758;52.122;5.404;2023-04-28T11:28:53;10.20;;;7.25;;
75413;SDS011;64758;52.122;5.404;2023-04-28T11:31:22;10.20;;;6.93;;
75413;SDS011;64758;52.122;5.404;2023-04-28T11:36:26;11.13;;;7.78;;
75413;SDS011;64758;52.122;5.404;2023-04-28T11:38:54;8.82;;;6.60;;
75413;SDS011;64758;52.122;5.404;2023-04-28T11:41:22;10.73;;;7.47;;
75413;SDS011;64758;52.122;5.404;2023-04-28T11:43:49;10.77;;;7.37;;
75413;SDS011;64758;52.122;5.404;2023-04-28T11:46:17;11.07;;;7.15;;
75413;SDS011;64758;52.122;5.404;2023-04-28T11:48:45;11.40;;;6.80;;
75413;SDS011;64758;52.122;5.404;2023-04-28T11:53:58;9.52;;;6.50;;
75413;SDS011;64758;52.122;5.404;2023-04-28T11:56:26;10.17;;;6.33;;
75413;SDS011;64758;52.122;5.404;2023-04-28T11:59:04;8.65;;;6.05;;
75413;SDS011;64758;52.122;5.404;2023-04-28T12:01:33;8.02;;;5.50;;
75413;SDS011;64758;52.122;5.404;2023-04-28T12:04:09;7.70;;;5.55;;
75413;SDS011;64758;52.122;5.404;2023-04-28T12:06:36;8.98;;;5.03;;
75413;SDS011;64758;52.122;5.404;2023-04-28T12:09:13;9.93;;;5.70;;
75413;SDS011;64758;52.122;5.404;2023-04-28T12:11:57;9.45;;;5.20;;
75413;SDS011;64758;52.122;5.404;2023-04-28T12:14:27;7.70;;;4.68;;
75413;SDS011;64758;52.122;5.404;2023-04-28T12:16:55;8.20;;;5.22;;
75413;SDS011;64758;52.122;5.404;2023-04-28T12:19:22;7.30;;;4.82;;
75413;SDS011;64758;52.122;5.404;2023-04-28T12:21:59;8.07;;;4.67;;
75413;SDS011;64758;52.122;5.404;2023-04-28T12:24:27;6.75;;;4.35;;
75413;SDS011;64758;52.122;5.404;2023-04-28T12:26:54;11.60;;;4.47;;
75413;SDS011;64758;52.122;5.404;2023-04-28T12:29:40;6.68;;;4.38;;
75413;SDS011;64758;52.122;5.404;2023-04-28T12:32:09;7.82;;;4.13;;
75413;SDS011;64758;52.122;5.404;2023-04-28T12:34:36;7.30;;;3.73;;
75413;SDS011;64758;52.122;5.404;2023-04-28T12:37:04;5.10;;;3.45;;
75413;SDS011;64758;52.122;5.404;2023-04-28T12:39:32;5.05;;;2.78;;
75413;SDS011;64758;52.122;5.404;2023-04-28T12:42:03;4.22;;;2.50;;
75413;SDS011;64758;52.122;5.404;2023-04-28T12:44:33;4.18;;;2.00;;
75413;SDS011;64758;52.122;5.404;2023-04-28T12:47:01;3.63;;;2.00;;
75413;SDS011;64758;52.122;5.404;2023-04-28T12:49:32;5.25;;;2.00;;
75413;SDS011;64758;52.122;5.404;2023-04-28T12:52:02;3.75;;;1.80;;
75413;SDS011;64758;52.122;5.404;2023-04-28T12:54:29;4.25;;;2.08;;
75413;SDS011;64758;52.122;5.404;2023-04-28T12:56:56;2.25;;;1.50;;
75413;SDS011;64758;52.122;5.404;2023-04-28T12:59:23;2.77;;;1.37;;
75413;SDS011;64758;52.122;5.404;2023-04-28T13:01:49;2.13;;;1.08;;
75413;SDS011;64758;52.122;5.404;2023-04-28T13:04:16;1.85;;;1.10;;
75413;SDS011;64758;52.122;5.404;2023-04-28T13:06:44;1.95;;;1.27;;
75413;SDS011;64758;52.122;5.404;2023-04-28T13:09:10;3.08;;;1.50;;
75413;SDS011;64758;52.122;5.404;2023-04-28T13:11:38;1.97;;;1.43;;
75413;SDS011;64758;52.122;5.404;2023-04-28T13:14:04;2.33;;;1.35;;
75413;SDS011;64758;52.122;5.404;2023-04-28T13:16:31;1.90;;;1.73;;
75413;SDS011;64758;52.122;5.404;2023-04-28T13:18:59;1.92;;;1.60;;
75413;SDS011;64758;52.122;5.404;2023-04-28T13:21:26;1.88;;;1.50;;
75413;SDS011;64758;52.122;5.404;2023-04-28T13:23:54;2.63;;;2.20;;
75413;SDS011;64758;52.122;5.404;2023-04-28T13:26:21;2.33;;;2.08;;
75413;SDS011;64758;52.122;5.404;2023-04-28T13:28:51;3.72;;;2.28;;
75413;SDS011;64758;52.122;5.404;2023-04-28T13:31:18;2.90;;;2.63;;
75413;SDS011;64758;52.122;5.404;2023-04-28T13:33:44;4.70;;;3.25;;
75413;SDS011;64758;52.122;5.404;2023-04-28T13:36:11;5.17;;;3.03;;
75413;SDS011;64758;52.122;5.404;2023-04-28T13:38:38;3.60;;;3.30;;
75413;SDS011;64758;52.122;5.404;2023-04-28T13:41:05;3.67;;;3.38;;
75413;SDS011;64758;52.122;5.404;2023-04-28T13:43:32;3.50;;;3.20;;
75413;SDS011;64758;52.122;5.404;2023-04-28T13:45:59;3.53;;;3.22;;
75413;SDS011;64758;52.122;5.404;2023-04-28T13:48:26;3.43;;;3.07;;
75413;SDS011;64758;52.122;5.404;2023-04-28T13:50:54;3.60;;;3.30;;
75413;SDS011;64758;52.122;5.404;2023-04-28T13:53:21;3.85;;;3.55;;
75413;SDS011;64758;52.122;5.404;2023-04-28T13:55:48;3.63;;;3.33;;
75413;SDS011;64758;52.122;5.404;2023-04-28T13:58:16;2.92;;;2.72;;
75413;SDS011;64758;52.122;5.404;2023-04-28T14:00:42;3.03;;;2.77;;
75413;SDS011;64758;52.122;5.404;2023-04-28T14:03:09;2.20;;;2.00;;
75413;SDS011;64758;52.122;5.404;2023-04-28T14:05:36;2.58;;;2.38;;
75413;SDS011;64758;52.122;5.404;2023-04-28T14:08:14;2.58;;;2.35;;
75413;SDS011;64758;52.122;5.404;2023-04-28T14:10:45;2.13;;;1.92;;
75413;SDS011;64758;52.122;5.404;2023-04-28T14:13:12;2.57;;;2.37;;
75413;SDS011;64758;52.122;5.404;2023-04-28T14:15:39;2.40;;;2.20;;
75413;SDS011;64758;52.122;5.404;2023-04-28T14:18:23;1.60;;;1.50;;
75413;SDS011;64758;52.122;5.404;2023-04-28T14:20:50;1.63;;;1.50;;
75413;SDS011;64758;52.122;5.404;2023-04-28T14:23:17;2.42;;;1.70;;
75413;SDS011;64758;52.122;5.404;2023-04-28T14:25:43;1.87;;;1.73;;
75413;SDS011;64758;52.122;5.404;2023-04-28T14:28:10;2.97;;;2.28;;
75413;SDS011;64758;52.122;5.404;2023-04-28T14:30:36;2.63;;;2.35;;
75413;SDS011;64758;52.122;5.404;2023-04-28T14:33:03;3.42;;;2.20;;
75413;SDS011;64758;52.122;5.404;2023-04-28T14:35:30;2.85;;;2.17;;
75413;SDS011;64758;52.122;5.404;2023-04-28T14:37:57;4.07;;;2.20;;
75413;SDS011;64758;52.122;5.404;2023-04-28T14:40:24;2.35;;;2.13;;
75413;SDS011;64758;52.122;5.404;2023-04-28T14:42:51;3.45;;;2.60;;
75413;SDS011;64758;52.122;5.404;2023-04-28T14:45:18;5.63;;;3.33;;
75413;SDS011;64758;52.122;5.404;2023-04-28T14:47:45;3.95;;;3.00;;
75413;SDS011;64758;52.122;5.404;2023-04-28T14:50:12;4.60;;;3.27;;
75413;SDS011;64758;52.122;5.404;2023-04-28T14:52:39;6.07;;;4.05;;
75413;SDS011;64758;52.122;5.404;2023-04-28T14:55:07;5.60;;;3.78;;
75413;SDS011;64758;52.122;5.404;2023-04-28T14:57:34;6.43;;;4.20;;
75413;SDS011;64758;52.122;5.404;2023-04-28T15:00:00;6.07;;;4.03;;
75413;SDS011;64758;52.122;5.404;2023-04-28T15:02:27;7.03;;;3.93;;
75413;SDS011;64758;52.122;5.404;2023-04-28T15:04:55;7.60;;;4.20;;
75413;SDS011;64758;52.122;5.404;2023-04-28T15:07:22;7.25;;;4.40;;
75413;SDS011;64758;52.122;5.404;2023-04-28T15:09:49;9.55;;;3.90;;
75413;SDS011;64758;52.122;5.404;2023-04-28T15:12:16;8.93;;;4.90;;
75413;SDS011;64758;52.122;5.404;2023-04-28T15:14:43;8.17;;;5.17;;
75413;SDS011;64758;52.122;5.404;2023-04-28T15:17:09;9.75;;;5.18;;
75413;SDS011;64758;52.122;5.404;2023-04-28T15:19:36;7.97;;;4.70;;
75413;SDS011;64758;52.122;5.404;2023-04-28T15:22:03;10.15;;;5.50;;